Time;durP1;ratioP1;P1;durP2;ratioP2;P2;SDS_P1;SDS_P2;PMS_P1;PMS_P2;Temp;Humidity;BMP_temperature;BMP_pressure;BME280_temperature;BME280_humidity;BME280_pressure;Samples;Min_cycle;Max_cycle;Signal;HPM_P1;HPM_P2
2023/04/06 00:02:23;;;;;;;6.22;2.50;;;12.10;37.70;;;;;;5983598;29;20459;-69
2023/04/06 00:05:24;;;;;;;3.55;2.03;;;12.10;37.90;;;;;;5983958;29;20087;-69
2023/04/06 00:08:26;;;;;;;6.00;2.60;;;12.10;38.10;;;;;;5983415;29;20098;-68
2023/04/06 00:11:27;;;;;;;8.57;2.78;;;12.10;38.30;;;;;;6022124;29;20125;-69
2023/04/06 00:14:28;;;;;;;7.78;2.50;;;12.00;38.30;;;;;;6003193;29;20034;-69
2023/04/06 00:17:29;;;;;;;5.45;2.35;;;12.00;38.40;;;;;;5983479;29;20023;-69
2023/04/06 00:20:30;;;;;;;5.22;2.67;;;12.00;38.50;;;;;;5982933;29;20598;-69
2023/04/06 00:23:31;;;;;;;4.30;2.08;;;12.00;38.60;;;;;;5983574;29;20034;-69
2023/04/06 00:26:31;;;;;;;5.18;2.28;;;12.00;38.70;;;;;;5983438;29;20525;-69
2023/04/06 00:29:33;;;;;;;4.97;2.63;;;12.00;39.10;;;;;;6012100;29;20247;-69
2023/04/06 00:32:35;;;;;;;6.10;2.17;;;11.90;39.40;;;;;;6012308;29;20026;-69
2023/04/06 00:35:36;;;;;;;8.27;2.58;;;11.80;39.80;;;;;;5981770;29;20266;-70
2023/04/06 00:38:37;;;;;;;3.75;2.25;;;11.80;39.90;;;;;;5994800;29;20042;-69
2023/04/06 00:41:43;;;;;;;4.90;2.78;;;11.70;40.20;;;;;;6004672;29;20156;-70
2023/04/06 00:44:44;;;;;;;4.90;2.40;;;11.70;40.50;;;;;;5989234;29;20045;-69
2023/04/06 00:47:45;;;;;;;6.47;2.70;;;11.70;40.70;;;;;;5973972;29;20042;-70
2023/04/06 00:50:46;;;;;;;8.38;2.70;;;11.60;40.90;;;;;;5960514;29;20027;-69
2023/04/06 00:53:47;;;;;;;6.25;2.85;;;11.60;41.00;;;;;;5973655;29;20088;-70
2023/04/06 00:56:48;;;;;;;4.32;2.42;;;11.50;41.10;;;;;;5973918;29;20142;-69
2023/04/06 00:59:49;;;;;;;5.70;2.60;;;11.50;41.20;;;;;;5988793;29;20325;-69
2023/04/06 01:02:50;;;;;;;7.78;2.75;;;11.40;41.30;;;;;;5974171;29;20437;-70
2023/04/06 01:05:58;;;;;;;6.20;2.95;;;11.40;41.60;;;;;;5977713;29;20039;-69
2023/04/06 01:09:04;;;;;;;7.18;2.60;;;11.40;41.80;;;;;;5984358;29;20086;-69
2023/04/06 01:12:05;;;;;;;5.15;2.30;;;11.30;41.90;;;;;;5983378;29;20474;-69
2023/04/06 01:15:10;;;;;;;6.35;2.60;;;11.30;41.80;;;;;;5981504;29;20031;-68
2023/04/06 01:18:13;;;;;;;8.07;2.70;;;11.30;41.90;;;;;;6011213;29;20527;-69
2023/04/06 01:21:21;;;;;;;5.50;2.90;;;11.20;41.60;;;;;;6011298;29;20218;-69
2023/04/06 01:24:48;;;;;;;3.00;1.92;;;11.20;41.50;;;;;;5974148;29;20042;-68
2023/04/06 01:27:55;;;;;;;6.90;3.25;;;11.10;41.30;;;;;;5981786;29;20037;-69
2023/04/06 01:30:59;;;;;;;6.57;2.83;;;11.00;41.40;;;;;;6011137;29;20134;-68
2023/04/06 01:34:22;;;;;;;6.03;3.05;;;11.00;41.30;;;;;;5980126;29;20038;-70
2023/04/06 01:37:23;;;;;;;6.97;2.67;;;10.90;41.30;;;;;;5983067;29;20370;-70
2023/04/06 01:40:28;;;;;;;6.80;3.72;;;10.90;41.30;;;;;;6003267;29;20033;-69
2023/04/06 01:43:29;;;;;;;12.27;3.45;;;10.90;41.30;;;;;;6003105;29;20220;-69
2023/04/06 01:46:41;;;;;;;7.53;2.95;;;10.90;41.40;;;;;;5973066;29;20035;-69
2023/04/06 01:49:45;;;;;;;9.52;3.65;;;10.80;41.50;;;;;;6000337;29;20034;-69
2023/04/06 01:52:46;;;;;;;6.63;3.35;;;10.90;41.80;;;;;;6010747;29;20101;-69
2023/04/06 01:55:48;;;;;;;7.15;3.28;;;10.80;41.80;;;;;;6010786;29;20038;-69
2023/04/06 01:59:02;;;;;;;4.75;2.50;;;10.70;41.90;;;;;;6010509;29;20456;-70
2023/04/06 02:02:10;;;;;;;7.63;3.50;;;10.80;42.10;;;;;;6010914;29;20746;-70
2023/04/06 02:05:13;;;;;;;8.65;3.42;;;10.70;42.10;;;;;;6010670;29;20041;-69
2023/04/06 02:08:14;;;;;;;4.65;3.00;;;10.70;42.30;;;;;;6010606;29;20455;-70
2023/04/06 02:11:15;;;;;;;6.05;2.75;;;10.70;42.40;;;;;;5987991;29;20117;-69
2023/04/06 02:14:25;;;;;;;5.30;3.05;;;10.60;42.60;;;;;;6002369;29;20030;-69
2023/04/06 02:17:29;;;;;;;6.22;2.88;;;10.60;42.80;;;;;;6018084;29;20355;-70
2023/04/06 02:20:30;;;;;;;7.60;2.78;;;10.50;42.80;;;;;;6033138;29;20469;-69
2023/04/06 02:23:31;;;;;;;3.78;2.58;;;10.40;42.90;;;;;;5986658;29;20052;-70
2023/04/06 02:26:32;;;;;;;7.07;2.58;;;10.40;43.00;;;;;;5979671;29;20517;-69
2023/04/06 02:29:32;;;;;;;7.28;2.95;;;10.30;43.10;;;;;;5979852;29;20031;-69
2023/04/06 02:32:34;;;;;;;10.20;3.05;;;10.30;43.10;;;;;;5979779;29;20083;-69
2023/04/06 02:35:35;;;;;;;5.30;2.58;;;10.30;43.10;;;;;;5980050;29;20034;-69
2023/04/06 02:38:36;;;;;;;5.72;3.08;;;10.30;43.10;;;;;;5991217;29;20171;-68
2023/04/06 02:41:37;;;;;;;6.30;2.53;;;10.20;43.10;;;;;;6003693;29;20381;-69
2023/04/06 02:44:39;;;;;;;7.22;2.70;;;10.20;43.00;;;;;;6010414;29;20034;-69
2023/04/06 02:47:40;;;;;;;5.38;2.95;;;10.20;43.10;;;;;;6010089;29;20796;-69
2023/04/06 02:50:41;;;;;;;4.93;2.08;;;10.20;43.20;;;;;;6010215;29;20038;-69
2023/04/06 02:53:42;;;;;;;4.75;2.30;;;10.20;43.30;;;;;;5979319;29;20031;-68
2023/04/06 02:56:43;;;;;;;3.95;2.53;;;10.20;43.30;;;;;;6009964;29;20043;-69
2023/04/06 02:59:44;;;;;;;6.57;2.58;;;10.20;43.50;;;;;;6009923;29;20063;-69
2023/04/06 03:03:00;;;;;;;3.17;2.10;;;10.10;43.60;;;;;;6014007;29;20042;-70
2023/04/06 03:06:02;;;;;;;4.10;2.33;;;10.10;43.70;;;;;;6014355;29;20035;-69
2023/04/06 03:09:06;;;;;;;4.43;2.65;;;10.10;43.90;;;;;;6013995;29;20045;-68
2023/04/06 03:12:08;;;;;;;5.00;2.40;;;10.00;44.00;;;;;;5997886;29;20439;-69
2023/04/06 03:15:20;;;;;;;5.55;2.60;;;10.00;44.10;;;;;;6006232;29;20104;-70
2023/04/06 03:18:36;;;;;;;4.80;2.63;;;9.90;44.20;;;;;;6016070;29;20512;-69
2023/04/06 03:21:37;;;;;;;4.65;2.95;;;9.90;44.20;;;;;;5983009;29;20113;-68
2023/04/06 03:24:38;;;;;;;11.93;2.95;;;10.00;44.40;;;;;;6013649;29;20179;-70
2023/04/06 03:27:40;;;;;;;3.60;1.98;;;10.00;44.60;;;;;;6013546;29;20111;-69
2023/04/06 03:30:45;;;;;;;4.55;2.60;;;10.00;45.10;;;;;;5997823;29;20041;-69
2023/04/06 03:33:47;;;;;;;7.30;2.50;;;10.00;45.70;;;;;;6013650;29;20525;-69
2023/04/06 03:36:55;;;;;;;5.53;2.75;;;9.90;45.90;;;;;;5997162;29;20795;-71
2023/04/06 03:39:57;;;;;;;4.97;2.45;;;9.90;46.40;;;;;;6035861;29;20361;-70
2023/04/06 03:42:59;;;;;;;4.40;2.95;;;9.90;46.40;;;;;;6036460;29;20082;-69
2023/04/06 03:46:01;;;;;;;5.63;3.00;;;9.80;46.60;;;;;;5980848;29;20050;-69
2023/04/06 03:49:02;;;;;;;7.75;3.05;;;9.80;46.80;;;;;;5981604;29;20112;-69
2023/04/06 03:52:04;;;;;;;4.78;2.50;;;9.80;46.90;;;;;;5998043;29;20034;-68
2023/04/06 03:55:06;;;;;;;7.53;3.20;;;9.80;46.90;;;;;;5983261;29;20472;-69
2023/04/06 03:58:06;;;;;;;6.22;2.47;;;9.70;46.80;;;;;;5987142;29;20018;-69
2023/04/06 04:01:07;;;;;;;5.25;3.22;;;9.70;46.70;;;;;;5984501;29;20042;-69
2023/04/06 04:04:09;;;;;;;6.25;2.80;;;9.70;47.20;;;;;;5984050;29;20550;-69
2023/04/06 04:07:10;;;;;;;5.03;2.78;;;9.70;46.50;;;;;;5983524;29;20167;-70
2023/04/06 04:10:11;;;;;;;5.05;2.92;;;9.70;46.30;;;;;;6013037;29;20042;-69
2023/04/06 04:13:12;;;;;;;4.88;2.47;;;9.70;46.20;;;;;;6034779;29;20386;-69
2023/04/06 04:16:13;;;;;;;4.85;2.40;;;9.70;46.00;;;;;;6017900;29;20030;-69
2023/04/06 04:19:16;;;;;;;4.07;2.78;;;9.80;45.90;;;;;;5996324;29;20125;-68
2023/04/06 04:22:17;;;;;;;5.03;2.55;;;9.70;45.80;;;;;;6012769;29;20034;-68
2023/04/06 04:25:18;;;;;;;7.22;3.13;;;9.70;45.80;;;;;;5982012;29;20121;-68
2023/04/06 04:28:23;;;;;;;8.45;2.60;;;9.70;45.70;;;;;;5996500;29;20361;-70
2023/04/06 04:31:24;;;;;;;10.27;2.88;;;9.70;45.70;;;;;;5981629;29;20091;-72
2023/04/06 04:34:30;;;;;;;5.28;3.03;;;9.80;45.70;;;;;;5981350;29;20499;-69
2023/04/06 04:37:32;;;;;;;4.57;2.17;;;9.70;45.60;;;;;;6015843;29;20387;-69
2023/04/06 04:40:32;;;;;;;4.70;1.98;;;9.70;45.60;;;;;;6035557;29;20140;-69
2023/04/06 04:43:41;;;;;;;4.57;2.25;;;9.70;45.70;;;;;;6004423;29;20475;-69
2023/04/06 04:46:44;;;;;;;5.10;2.50;;;9.60;45.70;;;;;;5989629;29;20055;-68
2023/04/06 04:49:46;;;;;;;5.40;2.15;;;9.60;45.80;;;;;;6002504;29;20054;-68
2023/04/06 04:52:53;;;;;;;6.20;3.45;;;9.60;45.80;;;;;;6012261;29;20039;-70
2023/04/06 04:55:57;;;;;;;6.78;3.13;;;9.50;45.80;;;;;;5983104;29;20105;-70
2023/04/06 04:59:01;;;;;;;4.38;2.13;;;9.50;45.90;;;;;;5981124;29;20034;-70
2023/04/06 05:02:04;;;;;;;7.97;2.78;;;9.50;46.00;;;;;;6011937;29;20028;-69
2023/04/06 05:05:15;;;;;;;7.22;2.80;;;9.40;46.00;;;;;;5995242;29;20046;-70
2023/04/06 05:08:17;;;;;;;3.58;2.50;;;9.40;46.20;;;;;;5996118;29;20112;-69
2023/04/06 05:11:21;;;;;;;3.67;2.33;;;9.40;46.20;;;;;;6019922;29;20480;-69
2023/04/06 05:14:29;;;;;;;5.10;2.70;;;9.30;46.30;;;;;;6003518;29;20113;-69
2023/04/06 05:17:31;;;;;;;7.03;2.95;;;9.30;46.40;;;;;;6003205;29;20675;-68
2023/04/06 05:20:35;;;;;;;7.95;3.20;;;9.30;46.50;;;;;;6003048;29;20109;-69
2023/04/06 05:23:36;;;;;;;11.13;3.33;;;9.30;46.50;;;;;;6018256;29;20130;-68
2023/04/06 05:26:38;;;;;;;8.02;2.85;;;9.30;46.60;;;;;;6003435;29;20105;-69
2023/04/06 05:29:45;;;;;;;11.80;3.33;;;9.30;46.70;;;;;;5988914;29;20456;-70
2023/04/06 05:32:47;;;;;;;9.85;2.58;;;9.20;46.70;;;;;;6003380;29;20177;-69
2023/04/06 05:35:48;;;;;;;9.35;3.25;;;9.30;46.80;;;;;;6018997;29;20786;-69
2023/04/06 05:38:51;;;;;;;6.47;3.22;;;9.30;46.70;;;;;;6020378;29;20109;-70
2023/04/06 05:42:06;;;;;;;6.50;3.30;;;9.20;46.60;;;;;;5980967;29;20046;-69
2023/04/06 05:45:21;;;;;;;7.35;3.42;;;9.30;46.70;;;;;;5973265;29;20079;-68
2023/04/06 05:48:27;;;;;;;8.83;3.67;;;9.30;46.60;;;;;;5976770;29;20455;-69
2023/04/06 05:51:28;;;;;;;7.45;3.60;;;9.40;46.70;;;;;;6010739;29;20034;-69
2023/04/06 05:54:29;;;;;;;10.30;3.67;;;9.30;46.60;;;;;;5981761;29;20476;-70
2023/04/06 05:57:35;;;;;;;9.90;3.72;;;9.50;46.80;;;;;;6028969;29;20356;-69
2023/04/06 06:00:38;;;;;;;7.03;3.40;;;9.40;46.80;;;;;;6018437;29;20116;-68
2023/04/06 06:03:41;;;;;;;6.72;3.47;;;9.30;46.80;;;;;;6002369;29;20034;-69
2023/04/06 06:06:42;;;;;;;8.70;4.32;;;9.40;46.80;;;;;;6000313;29;20098;-70
2023/04/06 06:09:53;;;;;;;17.30;4.38;;;9.40;47.00;;;;;;6010892;29;20050;-71
2023/04/06 06:12:59;;;;;;;6.65;3.67;;;9.40;46.90;;;;;;6032865;29;20057;-70
2023/04/06 06:16:04;;;;;;;11.00;4.00;;;9.40;47.10;;;;;;6002342;29;20064;-68
2023/04/06 06:19:08;;;;;;;5.70;3.35;;;9.40;47.20;;;;;;6002129;29;20065;-70
2023/04/06 06:22:10;;;;;;;9.20;4.72;;;9.50;47.30;;;;;;6002386;29;20090;-68
2023/04/06 06:25:15;;;;;;;6.90;3.70;;;9.50;47.20;;;;;;6002755;29;20051;-70
2023/04/06 06:28:17;;;;;;;11.32;4.10;;;9.60;47.20;;;;;;6002177;29;20117;-69
2023/04/06 06:31:20;;;;;;;11.52;4.95;;;9.70;47.20;;;;;;6002409;29;20523;-70
2023/04/06 06:34:21;;;;;;;15.52;4.85;;;9.70;47.10;;;;;;6003491;29;20070;-69
2023/04/06 06:37:23;;;;;;;11.82;4.28;;;9.80;47.00;;;;;;6034697;29;20038;-69
2023/04/06 06:40:25;;;;;;;11.95;4.90;;;9.90;46.80;;;;;;5984382;29;20034;-69
2023/04/06 06:43:28;;;;;;;13.38;4.25;;;10.00;46.70;;;;;;5983991;29;20476;-69
2023/04/06 06:46:35;;;;;;;6.18;3.58;;;10.10;46.50;;;;;;5976629;29;20102;-68
2023/04/06 06:49:36;;;;;;;10.45;4.32;;;10.20;46.30;;;;;;5976784;29;20563;-69
2023/04/06 06:52:37;;;;;;;11.73;4.80;;;10.30;46.20;;;;;;5988496;29;20022;-69
2023/04/06 06:55:38;;;;;;;8.57;4.68;;;10.40;46.60;;;;;;5988646;29;20053;-69
2023/04/06 06:58:39;;;;;;;8.25;4.13;;;10.50;46.00;;;;;;5984265;29;20374;-70
2023/04/06 07:01:40;;;;;;;11.93;4.40;;;10.60;45.70;;;;;;5984006;29;20053;-70
2023/04/06 07:04:41;;;;;;;8.18;4.03;;;10.60;45.40;;;;;;5983618;29;20066;-69
2023/04/06 07:07:42;;;;;;;9.23;4.18;;;10.70;45.30;;;;;;5984731;29;20042;-69
2023/04/06 07:10:43;;;;;;;9.55;4.07;;;10.80;45.10;;;;;;5987066;29;20129;-69
2023/04/06 07:13:44;;;;;;;12.30;4.00;;;11.00;45.00;;;;;;6007983;29;20094;-70
2023/04/06 07:16:46;;;;;;;13.38;4.47;;;11.10;44.80;;;;;;6006032;29;20082;-69
2023/04/06 07:19:47;;;;;;;6.88;3.70;;;11.20;44.60;;;;;;6005834;29;20463;-68
2023/04/06 07:22:48;;;;;;;11.05;4.70;;;11.20;44.40;;;;;;6005814;29;20037;-69
2023/04/06 07:25:52;;;;;;;7.93;3.97;;;11.30;44.40;;;;;;6006268;29;20093;-69
2023/04/06 07:28:53;;;;;;;7.63;4.05;;;11.40;44.20;;;;;;6005538;29;20030;-69
2023/04/06 07:31:55;;;;;;;15.35;4.28;;;11.50;44.00;;;;;;6036536;29;20060;-70
2023/04/06 07:34:57;;;;;;;6.75;4.10;;;11.60;43.80;;;;;;6036187;29;20105;-68
2023/04/06 07:37:59;;;;;;;17.80;4.97;;;11.70;43.70;;;;;;5997752;29;20030;-70
2023/04/06 07:41:02;;;;;;;6.95;4.03;;;11.90;43.60;;;;;;5982700;29;20114;-69
2023/04/06 07:44:04;;;;;;;7.57;4.40;;;12.00;43.30;;;;;;5983708;29;20117;-69
2023/04/06 07:47:05;;;;;;;7.63;3.88;;;12.20;43.00;;;;;;5983751;29;20038;-69
2023/04/06 07:50:07;;;;;;;12.35;4.03;;;12.30;42.80;;;;;;5982902;29;20038;-69
2023/04/06 07:53:09;;;;;;;10.48;4.90;;;12.40;42.70;;;;;;6013462;29;20030;-68
2023/04/06 07:56:11;;;;;;;6.90;3.72;;;12.60;42.70;;;;;;5982827;29;20375;-69
2023/04/06 07:59:13;;;;;;;5.80;3.33;;;12.60;42.30;;;;;;5983523;29;20066;-69
2023/04/06 08:02:14;;;;;;;7.25;3.97;;;12.80;41.90;;;;;;5983945;29;20634;-69
2023/04/06 08:05:15;;;;;;;8.90;4.40;;;12.90;41.60;;;;;;5982292;29;20045;-69
2023/04/06 08:08:16;;;;;;;6.45;3.30;;;13.00;41.40;;;;;;5983443;29;20591;-69
2023/04/06 08:11:17;;;;;;;10.32;3.65;;;13.00;41.10;;;;;;5991679;29;20516;-69
2023/04/06 08:14:18;;;;;;;6.85;3.75;;;13.00;40.70;;;;;;6004905;29;20177;-69
2023/04/06 08:17:19;;;;;;;10.48;3.75;;;13.00;40.60;;;;;;6006333;29;20030;-70
2023/04/06 08:20:19;;;;;;;5.68;3.30;;;13.10;40.70;;;;;;6006487;29;20401;-69
2023/04/06 08:23:20;;;;;;;8.90;4.00;;;13.20;40.70;;;;;;6005132;29;20033;-70
2023/04/06 08:26:21;;;;;;;5.82;3.30;;;13.30;40.30;;;;;;6006170;29;20381;-70
2023/04/06 08:29:22;;;;;;;10.20;4.03;;;13.40;40.00;;;;;;6004011;29;20041;-69
2023/04/06 08:32:23;;;;;;;8.88;3.42;;;13.60;39.60;;;;;;6005970;29;20097;-68
2023/04/06 08:35:24;;;;;;;7.22;3.72;;;13.70;39.20;;;;;;5989324;29;20045;-71
2023/04/06 08:38:25;;;;;;;5.60;3.13;;;13.90;38.70;;;;;;5995128;29;20095;-70
2023/04/06 08:41:27;;;;;;;6.88;3.28;;;14.00;38.50;;;;;;5983185;29;20464;-68
2023/04/06 08:44:28;;;;;;;7.68;3.90;;;14.10;38.40;;;;;;5981101;29;20029;-70
2023/04/06 08:47:29;;;;;;;7.55;3.28;;;14.30;38.30;;;;;;6011670;29;20071;-72
2023/04/06 08:50:32;;;;;;;6.82;3.65;;;14.40;37.80;;;;;;5983044;29;20068;-71
2023/04/06 08:53:33;;;;;;;4.03;2.88;;;14.60;37.70;;;;;;5982933;29;20022;-68
2023/04/06 08:56:38;;;;;;;5.18;2.72;;;14.60;37.10;;;;;;5983072;29;20039;-70
2023/04/06 08:59:40;;;;;;;6.32;3.33;;;14.70;37.00;;;;;;5982621;29;20037;-71
2023/04/06 09:02:43;;;;;;;7.68;3.35;;;14.80;37.00;;;;;;5996462;29;20043;-69
2023/04/06 09:05:45;;;;;;;8.25;3.42;;;14.90;36.80;;;;;;5982598;29;20046;-68
2023/04/06 09:08:46;;;;;;;6.72;3.35;;;15.00;36.60;;;;;;5982897;29;20034;-71
2023/04/06 09:11:49;;;;;;;5.07;2.55;;;15.00;36.60;;;;;;5994271;29;20034;-69
2023/04/06 09:14:50;;;;;;;7.38;3.13;;;15.10;36.40;;;;;;6005692;29;20029;-70
2023/04/06 09:17:54;;;;;;;13.68;3.28;;;15.20;36.30;;;;;;6004659;29;20380;-70
2023/04/06 09:21:03;;;;;;;6.65;2.25;;;15.30;35.90;;;;;;6004816;29;20669;-70
2023/04/06 09:24:04;;;;;;;10.10;3.47;;;15.40;35.00;;;;;;6004725;29;20040;-70
2023/04/06 09:27:05;;;;;;;4.95;2.45;;;15.30;34.60;;;;;;6004267;29;20125;-69
2023/04/06 09:30:13;;;;;;;6.30;2.50;;;15.30;34.70;;;;;;6004170;29;20033;-69
2023/04/06 09:33:21;;;;;;;;;;;15.30;34.60;;;;;;6002994;29;20046;-69
2023/04/06 09:36:32;;;;;;;8.45;3.08;;;15.30;34.60;;;;;;6003482;29;19932;-70
2023/04/06 09:39:33;;;;;;;13.40;5.65;;;15.30;34.40;;;;;;6000441;29;20613;-70
2023/04/06 09:42:35;;;;;;;12.30;4.35;;;15.30;34.60;;;;;;5986432;29;20090;-69
2023/04/06 09:45:36;;;;;;;14.38;3.47;;;15.40;34.10;;;;;;5981908;29;20416;-70
2023/04/06 09:48:37;;;;;;;6.45;2.50;;;15.50;33.90;;;;;;5982289;29;20033;-68
2023/04/06 09:51:47;;;;;;;4.30;3.10;;;15.50;33.70;;;;;;6011252;29;20467;-69
2023/04/06 09:54:50;;;;;;;5.63;2.75;;;15.60;33.90;;;;;;5985273;29;20034;-70
2023/04/06 09:58:00;;;;;;;17.40;5.55;;;15.60;33.50;;;;;;5986041;29;20598;-72
2023/04/06 10:01:11;;;;;;;11.25;3.78;;;15.70;33.50;;;;;;5983094;29;20173;-70
2023/04/06 10:04:43;;;;;;;12.63;3.85;;;15.70;33.60;;;;;;5982173;29;20066;-70
2023/04/06 10:07:46;;;;;;;9.57;3.20;;;15.80;33.80;;;;;;5982322;29;20061;-70
2023/04/06 10:10:49;;;;;;;8.88;3.42;;;15.90;33.80;;;;;;5988619;29;20058;-71
2023/04/06 10:13:50;;;;;;;6.30;3.30;;;16.00;33.60;;;;;;6002442;29;20041;-69
2023/04/06 10:16:51;;;;;;;7.13;2.63;;;16.10;33.30;;;;;;6002926;29;20884;-71
2023/04/06 10:20:08;;;;;;;5.38;3.00;;;16.20;32.80;;;;;;6004278;29;20120;-70
2023/04/06 10:23:29;;;;;;;13.10;2.88;;;16.30;32.40;;;;;;6004344;29;20041;-69
2023/04/06 10:26:31;;;;;;;8.20;3.55;;;16.10;32.40;;;;;;6005030;29;20468;-70
2023/04/06 10:29:51;;;;;;;8.07;3.42;;;16.30;32.20;;;;;;6004027;29;20034;-69
2023/04/06 10:32:51;;;;;;;13.35;3.35;;;16.50;32.30;;;;;;6002231;29;20471;-70
2023/04/06 10:35:52;;;;;;;7.43;3.63;;;16.60;32.20;;;;;;6010392;29;20026;-70
2023/04/06 10:38:58;;;;;;;7.22;3.60;;;16.80;32.20;;;;;;5994921;29;20449;-69
2023/04/06 10:42:06;;;;;;;6.18;3.28;;;16.90;32.60;;;;;;6002698;29;20029;-70
2023/04/06 10:45:18;;;;;;;12.02;3.50;;;17.10;31.70;;;;;;6023332;29;20044;-70
2023/04/06 10:48:19;;;;;;;5.57;3.05;;;17.30;31.40;;;;;;5981353;29;20034;-69
2023/04/06 10:51:27;;;;;;;8.27;3.45;;;17.60;31.00;;;;;;5981530;29;20058;-70
2023/04/06 10:54:28;;;;;;;6.95;3.05;;;17.90;30.50;;;;;;5981597;29;20038;-71
2023/04/06 10:57:30;;;;;;;10.10;3.50;;;18.30;30.00;;;;;;6010416;29;20333;-69
2023/04/06 11:00:31;;;;;;;7.18;3.65;;;18.70;30.10;;;;;;5980911;29;20857;-70
2023/04/06 11:03:46;;;;;;;7.78;3.70;;;19.10;29.20;;;;;;5979885;29;20046;-70
2023/04/06 11:06:48;;;;;;;10.13;4.40;;;19.40;28.90;;;;;;5981209;29;20039;-69
2023/04/06 11:09:50;;;;;;;5.78;3.38;;;19.70;28.20;;;;;;5979406;29;20437;-70
2023/04/06 11:12:54;;;;;;;8.55;3.75;;;19.90;27.60;;;;;;5998714;29;20444;-69
2023/04/06 11:15:55;;;;;;;11.63;4.05;;;20.10;27.50;;;;;;6032157;29;20089;-69
2023/04/06 11:19:02;;;;;;;7.63;4.22;;;20.40;27.40;;;;;;6002764;29;20034;-70
2023/04/06 11:22:07;;;;;;;10.88;3.70;;;20.70;27.10;;;;;;6005326;29;20403;-70
2023/04/06 11:25:08;;;;;;;6.15;3.58;;;20.80;26.70;;;;;;6007938;29;20375;-69
2023/04/06 11:28:09;;;;;;;9.15;3.92;;;20.90;26.60;;;;;;6005777;29;20070;-70
2023/04/06 11:31:11;;;;;;;6.20;3.25;;;21.00;26.50;;;;;;5991596;29;20482;-69
2023/04/06 11:34:18;;;;;;;7.47;3.60;;;21.10;26.50;;;;;;6013521;29;20050;-69
2023/04/06 11:37:19;;;;;;;8.65;3.47;;;21.20;26.40;;;;;;5999363;29;20353;-70
2023/04/06 11:40:24;;;;;;;9.57;3.83;;;21.50;26.30;;;;;;6005587;29;20426;-69
2023/04/06 11:43:30;;;;;;;11.15;3.42;;;21.70;25.90;;;;;;6005325;29;20086;-70
2023/04/06 11:46:31;;;;;;;7.57;4.28;;;22.00;25.60;;;;;;5984490;29;20129;-70
2023/04/06 11:49:37;;;;;;;7.90;3.63;;;22.20;25.30;;;;;;5983699;29;20491;-70
2023/04/06 11:52:40;;;;;;;7.07;3.83;;;22.40;25.20;;;;;;5984284;29;20026;-70
2023/04/06 11:55:44;;;;;;;9.10;3.42;;;22.70;25.10;;;;;;5982361;29;20035;-70
2023/04/06 11:58:45;;;;;;;8.77;3.70;;;23.10;24.80;;;;;;6012417;29;20050;-70
2023/04/06 12:01:46;;;;;;;9.38;3.92;;;23.40;24.20;;;;;;5983749;29;20073;-69
2023/04/06 12:04:47;;;;;;;7.85;3.60;;;23.60;24.00;;;;;;5983762;29;20042;-69
2023/04/06 12:07:48;;;;;;;5.10;3.35;;;23.80;23.60;;;;;;6012647;29;20092;-70
2023/04/06 12:10:49;;;;;;;7.20;3.65;;;24.00;23.30;;;;;;5988320;29;20036;-69
2023/04/06 12:13:50;;;;;;;5.28;3.80;;;24.30;23.00;;;;;;6006381;29;20106;-69
2023/04/06 12:16:51;;;;;;;6.60;3.80;;;24.60;22.60;;;;;;6007465;29;20026;-70
2023/04/06 12:19:52;;;;;;;6.70;3.60;;;24.50;22.20;;;;;;6006244;29;20053;-69
2023/04/06 12:22:53;;;;;;;5.68;3.38;;;24.50;22.10;;;;;;6005991;29;20133;-70
2023/04/06 12:25:54;;;;;;;5.93;3.47;;;24.70;21.80;;;;;;6000692;29;20045;-69
2023/04/06 12:28:55;;;;;;;6.10;3.13;;;24.80;21.50;;;;;;5996997;29;20038;-69
2023/04/06 12:31:56;;;;;;;7.07;3.45;;;24.70;21.40;;;;;;5983206;29;20102;-70
2023/04/06 12:34:57;;;;;;;6.00;3.15;;;24.50;21.60;;;;;;5997343;29;20046;-70
2023/04/06 12:37:58;;;;;;;8.70;3.03;;;24.30;21.70;;;;;;6019168;29;20034;-69
2023/04/06 12:40:59;;;;;;;7.57;3.58;;;24.20;21.80;;;;;;5999553;29;20078;-70
2023/04/06 12:44:00;;;;;;;9.15;2.88;;;24.90;21.30;;;;;;5981250;29;20168;-69
2023/04/06 12:47:02;;;;;;;6.70;3.17;;;25.80;20.00;;;;;;5960586;29;20103;-70
2023/04/06 12:50:03;;;;;;;6.05;2.70;;;26.50;19.20;;;;;;5976445;29;20038;-70
2023/04/06 12:53:05;;;;;;;5.28;2.78;;;27.00;18.40;;;;;;5982047;29;20113;-69
2023/04/06 12:56:17;;;;;;;7.25;2.55;;;27.20;17.80;;;;;;5981891;29;20425;-69
2023/04/06 12:59:18;;;;;;;3.42;2.58;;;27.20;17.70;;;;;;5984202;29;20026;-70
2023/04/06 13:02:21;;;;;;;5.97;2.22;;;27.50;17.40;;;;;;5985787;29;20357;-70
2023/04/06 13:05:22;;;;;;;5.80;2.67;;;28.10;17.10;;;;;;5985071;29;20030;-71
2023/04/06 13:08:22;;;;;;;4.05;2.65;;;28.60;16.50;;;;;;5981268;29;20492;-69
2023/04/06 13:11:24;;;;;;;3.75;2.40;;;28.90;16.40;;;;;;5982872;29;20559;-70
2023/04/06 13:14:25;;;;;;;4.85;2.72;;;29.20;16.00;;;;;;5981185;29;20046;-71
2023/04/06 13:17:27;;;;;;;3.70;2.55;;;29.20;15.60;;;;;;5980849;29;20493;-69
2023/04/06 13:20:28;;;;;;;4.30;2.58;;;28.70;15.50;;;;;;5980945;29;20026;-70
2023/04/06 13:23:29;;;;;;;6.45;2.78;;;28.20;15.40;;;;;;5981026;29;20043;-70
2023/04/06 13:26:30;;;;;;;5.25;2.50;;;27.50;15.70;;;;;;5992114;29;20403;-69
2023/04/06 13:29:31;;;;;;;4.35;2.20;;;27.00;15.90;;;;;;6004826;29;20073;-71
2023/04/06 13:32:33;;;;;;;6.65;2.03;;;26.50;15.70;;;;;;6003283;29;20548;-69
2023/04/06 13:35:35;;;;;;;4.78;2.10;;;25.90;15.70;;;;;;6004822;29;20022;-69
2023/04/06 13:38:38;;;;;;;3.42;2.00;;;25.40;15.90;;;;;;5999500;29;20502;-69
2023/04/06 13:41:40;;;;;;;3.78;2.13;;;25.10;15.90;;;;;;6004799;29;20192;-69
2023/04/06 13:44:40;;;;;;;5.57;2.10;;;24.90;16.00;;;;;;5996753;29;20163;-70
2023/04/06 13:47:41;;;;;;;3.67;2.20;;;24.70;16.00;;;;;;6011467;29;20035;-70
2023/04/06 13:50:45;;;;;;;3.30;2.00;;;24.70;16.10;;;;;;5981978;29;20034;-70
2023/04/06 13:53:46;;;;;;;2.95;1.92;;;24.50;16.10;;;;;;5982049;29;20423;-70
2023/04/06 13:56:46;;;;;;;6.25;2.20;;;24.30;16.10;;;;;;5981852;29;20030;-71
2023/04/06 13:59:49;;;;;;;3.97;1.85;;;24.50;16.20;;;;;;5981192;29;20370;-70
2023/04/06 14:02:50;;;;;;;2.83;1.75;;;24.30;16.10;;;;;;5980335;29;20052;-70
2023/04/06 14:05:51;;;;;;;3.55;2.05;;;24.30;16.10;;;;;;5981518;29;20360;-70
2023/04/06 14:08:53;;;;;;;4.78;1.80;;;24.20;16.20;;;;;;5981218;29;20050;-70
2023/04/06 14:11:55;;;;;;;3.33;1.70;;;24.20;16.30;;;;;;5994228;29;20058;-70
2023/04/06 14:14:56;;;;;;;3.90;1.90;;;24.30;16.20;;;;;;6004329;29;20037;-70
2023/04/06 14:17:57;;;;;;;3.95;1.67;;;24.30;16.00;;;;;;6017269;29;20034;-70
2023/04/06 14:20:58;;;;;;;3.00;1.52;;;24.30;16.40;;;;;;5981999;29;20120;-70
2023/04/06 14:23:59;;;;;;;2.80;1.35;;;24.30;15.60;;;;;;5981727;29;20117;-71
2023/04/06 14:27:00;;;;;;;2.38;1.40;;;24.10;15.20;;;;;;5981428;29;20408;-70
2023/04/06 14:30:01;;;;;;;1.63;1.08;;;23.90;15.20;;;;;;5981375;29;20083;-70
2023/04/06 14:33:02;;;;;;;2.05;1.23;;;23.80;15.10;;;;;;6010289;29;20367;-70
2023/04/06 14:36:04;;;;;;;2.35;1.30;;;23.80;14.70;;;;;;5981584;29;20026;-69
2023/04/06 14:39:06;;;;;;;2.10;1.38;;;23.70;14.80;;;;;;5996097;29;20061;-70
2023/04/06 14:42:07;;;;;;;1.40;1.05;;;23.70;14.80;;;;;;6003964;29;20038;-70
2023/04/06 14:45:08;;;;;;;2.58;1.20;;;23.70;14.60;;;;;;5992860;29;20464;-70
2023/04/06 14:48:11;;;;;;;4.28;1.40;;;23.50;14.40;;;;;;5981121;29;20664;-71
2023/04/06 14:51:12;;;;;;;3.60;1.60;;;23.30;14.70;;;;;;5980873;29;20172;-69
2023/04/06 14:54:13;;;;;;;2.38;1.20;;;23.10;15.20;;;;;;5979492;29;20373;-70
2023/04/06 14:57:14;;;;;;;3.97;1.35;;;23.00;15.60;;;;;;6013509;29;20095;-70
2023/04/06 15:00:15;;;;;;;3.80;1.30;;;22.80;15.70;;;;;;5985025;29;20027;-69
2023/04/06 15:03:16;;;;;;;2.55;1.30;;;22.60;15.80;;;;;;5985298;29;20027;-69
2023/04/06 15:06:19;;;;;;;1.98;1.23;;;22.50;15.90;;;;;;5985080;29;20488;-71
2023/04/06 15:09:20;;;;;;;2.00;1.10;;;22.30;15.90;;;;;;5984802;29;20089;-71
2023/04/06 15:12:21;;;;;;;4.35;1.08;;;22.10;15.90;;;;;;5999335;29;20030;-71
2023/04/06 15:15:21;;;;;;;1.80;1.20;;;22.00;16.00;;;;;;6037065;29;20297;-70
2023/04/06 15:18:22;;;;;;;6.82;1.95;;;21.90;16.00;;;;;;6001446;29;20456;-69
2023/04/06 15:21:23;;;;;;;2.22;0.95;;;21.90;16.60;;;;;;5984935;29;20030;-69
2023/04/06 15:24:24;;;;;;;1.27;0.90;;;22.00;16.20;;;;;;5998120;29;20317;-69
2023/04/06 15:27:25;;;;;;;2.88;0.90;;;21.90;16.00;;;;;;5984129;29;20034;-70
2023/04/06 15:30:26;;;;;;;2.00;1.05;;;21.90;16.00;;;;;;6013606;29;20042;-69
2023/04/06 15:33:27;;;;;;;3.22;1.45;;;21.90;16.00;;;;;;6013966;29;20535;-69
2023/04/06 15:36:29;;;;;;;3.40;1.25;;;21.80;16.00;;;;;;5984742;29;20019;-69
2023/04/06 15:39:31;;;;;;;3.80;1.10;;;21.70;15.80;;;;;;6001787;29;20033;-70
2023/04/06 15:42:32;;;;;;;1.73;1.00;;;21.60;15.90;;;;;;6006497;29;20041;-69
2023/04/06 15:45:33;;;;;;;2.10;1.00;;;21.50;15.90;;;;;;5993843;29;20394;-70
2023/04/06 15:48:34;;;;;;;1.45;0.90;;;21.40;15.90;;;;;;6013747;29;20038;-71
2023/04/06 15:51:36;;;;;;;2.20;0.90;;;21.30;15.90;;;;;;5982246;29;20556;-68
2023/04/06 15:54:39;;;;;;;0.98;0.80;;;21.20;16.00;;;;;;5984218;29;20102;-68